Yogi Berra — WDF2990 — position and weather

sailwx.info

Track history (hours):
 
Tides and Currents Weather Stations Pressure Air Temp Water Temp Dewpoint Dewpoint Depression Visibility Wind Speed Wind Dir Waves Ship Positions

Yogi Berra

Owner: PORT IMPERIAL FERRY, WEEHAWKEN, NJ. More information available from US FCC via Universal Licensing System and Coast Guard Vessel Documentation Center.

Last reported at 2017-Nov-17 14:08 UTC. Time now 2017-Nov-18 15:23 UTC.
Position N 40°46' W 074°01'.

Length 25 m.

Type: Passenger vessel. MMSI: 367434220.

Date/timePositionNaut miles runAvg speedWind from/ knotsBaromVisibWave heightAir tempDewpointWater temp
2017-Nov-17 14:08N 40°46' W 074°01'0 1.7
2017-Nov-17 14:00N 40°46' W 074°01'1 1.1
2017-Nov-17 13:30N 40°46' W 074°00'4 8.8
2017-Nov-17 13:00N 40°50' W 073°58'  
2017-Nov-14 00:59N 40°46' W 074°01'2 4.6
2017-Nov-14 00:30N 40°44' W 074°02'0 0.0
2017-Nov-14 00:00N 40°44' W 074°02'2 3.3
2017-Nov-13 23:30N 40°42' W 074°01'1 1.8
2017-Nov-13 23:00N 40°42' W 074°00'2 4.5
2017-Nov-13 22:30N 40°44' W 074°02'1 2.9
2017-Nov-13 22:01N 40°43' W 074°02'4 0.2
2017-Nov-13 02:00N 40°46' W 074°01'0 0.0
2017-Nov-13 01:30N 40°46' W 074°01'0 0.0
2017-Nov-13 01:00N 40°46' W 074°01'0 0.0
2017-Nov-13 00:31N 40°46' W 074°01'0 0.0
2017-Nov-13 00:00N 40°46' W 074°01'0 0.0
2017-Nov-12 23:31N 40°46' W 074°01'0 0.0
2017-Nov-12 23:00N 40°46' W 074°01'0 0.0
2017-Nov-12 22:30N 40°46' W 074°01'0 0.0
2017-Nov-12 22:00N 40°46' W 074°01'0 0.0
2017-Nov-12 21:30N 40°46' W 074°01'0 0.0
2017-Nov-12 21:00N 40°46' W 074°01'0 0.0
2017-Nov-12 20:30N 40°46' W 074°01'0 0.0
2017-Nov-12 20:00N 40°46' W 074°01'0 0.0
2017-Nov-12 19:30N 40°46' W 074°01'0 0.0
2017-Nov-12 19:00N 40°46' W 074°01'0 0.0
2017-Nov-12 18:30N 40°46' W 074°01'0 0.0
2017-Nov-12 18:00N 40°46' W 074°01'0 0.0
2017-Nov-12 17:30N 40°46' W 074°01'0 0.0
2017-Nov-12 17:00N 40°46' W 074°01'0 0.0
2017-Nov-12 16:30N 40°46' W 074°01'0 0.0
2017-Nov-12 16:00N 40°46' W 074°01'0 0.0
2017-Nov-12 15:30N 40°46' W 074°01'0 0.0
2017-Nov-12 15:00N 40°46' W 074°01'0 0.0
2017-Nov-12 14:30N 40°46' W 074°01'0 0.0
2017-Nov-12 14:00N 40°46' W 074°01'0 0.0
2017-Nov-12 13:30N 40°46' W 074°01'0 0.0
2017-Nov-12 13:00N 40°46' W 074°01'0 0.0
2017-Nov-12 12:30N 40°46' W 074°01'0 0.0
2017-Nov-12 12:01N 40°46' W 074°01'0 0.0
2017-Nov-12 11:30N 40°46' W 074°01'0 0.0
2017-Nov-12 11:00N 40°46' W 074°01'0 0.0
2017-Nov-12 10:30N 40°46' W 074°01'0 0.0
2017-Nov-12 10:00N 40°46' W 074°01'0 0.0
2017-Nov-12 09:30N 40°46' W 074°01'0 0.0
2017-Nov-12 09:00N 40°46' W 074°01'0 0.0
2017-Nov-12 08:30N 40°46' W 074°01'0 0.0
2017-Nov-12 08:01N 40°46' W 074°01'0 0.0
2017-Nov-12 07:30N 40°46' W 074°01'0 0.0
2017-Nov-12 07:00N 40°46' W 074°01'0 0.0
2017-Nov-12 06:31N 40°46' W 074°01'0 0.0
2017-Nov-12 06:00N 40°46' W 074°01'0 0.0
2017-Nov-12 05:30N 40°46' W 074°01'0 0.0
2017-Nov-12 05:00N 40°46' W 074°01'0 0.0
2017-Nov-12 04:30N 40°46' W 074°01'0 0.0
2017-Nov-12 04:00N 40°46' W 074°01'0 0.0
2017-Nov-12 03:30N 40°46' W 074°01'0 0.0
2017-Nov-12 03:00N 40°46' W 074°01'0 0.0
2017-Nov-12 02:29N 40°46' W 074°01'0 0.0
2017-Nov-12 02:00N 40°46' W 074°01'0 0.0
2017-Nov-12 01:30N 40°46' W 074°01'0 0.0
2017-Nov-12 01:00N 40°46' W 074°01'0 0.0
2017-Nov-12 00:30N 40°46' W 074°01'0 0.0
2017-Nov-12 00:00N 40°46' W 074°01'0 0.0
2017-Nov-11 23:30N 40°46' W 074°01'0 0.0
2017-Nov-11 23:00N 40°46' W 074°01'0 0.0
2017-Nov-11 22:30N 40°46' W 074°01'0 0.0
2017-Nov-11 22:00N 40°46' W 074°01'0 0.0
2017-Nov-11 21:30N 40°46' W 074°01'0 0.0
2017-Nov-11 21:00N 40°46' W 074°01'0 0.0
2017-Nov-11 20:30N 40°46' W 074°01'0 0.0
2017-Nov-11 20:00N 40°46' W 074°01'0 0.0
2017-Nov-11 19:30N 40°46' W 074°01'0 0.0
2017-Nov-11 19:00N 40°46' W 074°01'0 0.0
2017-Nov-11 18:01N 40°46' W 074°01'0 0.0
2017-Nov-11 17:30N 40°46' W 074°01'0 0.0
2017-Nov-11 17:00N 40°46' W 074°01'0 0.0
2017-Nov-11 16:30N 40°46' W 074°01'0 0.0
2017-Nov-11 16:00N 40°46' W 074°01'0 0.0
2017-Nov-11 15:30N 40°46' W 074°01'0 0.0
2017-Nov-11 15:00N 40°46' W 074°01'0 0.0
2017-Nov-11 14:30N 40°46' W 074°01'0 0.0
2017-Nov-11 14:00N 40°46' W 074°01'0 0.0
2017-Nov-11 13:30N 40°46' W 074°01'0 0.0
2017-Nov-11 13:00N 40°46' W 074°01'0 0.0
2017-Nov-11 12:30N 40°46' W 074°01'0 0.0
2017-Nov-11 12:00N 40°46' W 074°01'0 0.0
2017-Nov-11 11:30N 40°46' W 074°01'0 0.0
2017-Nov-11 11:00N 40°46' W 074°01'0 0.0
2017-Nov-11 10:30N 40°46' W 074°01'0 0.0
2017-Nov-11 10:00N 40°46' W 074°01'0 0.0
2017-Nov-11 09:30N 40°46' W 074°01'0 0.0
2017-Nov-11 09:00N 40°46' W 074°01'0 0.0
2017-Nov-11 08:31N 40°46' W 074°01'0 0.0
2017-Nov-11 08:00N 40°46' W 074°01'0 0.0
2017-Nov-11 07:30N 40°46' W 074°01'0 0.0
2017-Nov-11 07:00N 40°46' W 074°01'0 0.0
2017-Nov-11 06:30N 40°46' W 074°01'0 0.0
2017-Nov-11 06:00N 40°46' W 074°01'0 0.0
2017-Nov-11 05:30N 40°46' W 074°01'0 0.0
2017-Nov-11 05:00N 40°46' W 074°01'0 0.0
2017-Nov-11 04:30N 40°46' W 074°01'0 0.0
2017-Nov-11 04:00N 40°46' W 074°01'0 0.0
2017-Nov-11 03:30N 40°46' W 074°01'0 0.0
2017-Nov-11 03:00N 40°46' W 074°01'0 0.0
2017-Nov-11 02:30N 40°46' W 074°01'0 0.0
2017-Nov-11 02:00N 40°46' W 074°01'0 0.0
2017-Nov-11 01:30N 40°46' W 074°01'0 0.0
2017-Nov-11 01:00N 40°46' W 074°01'0 0.0
2017-Nov-11 00:30N 40°46' W 074°01'0 0.0
2017-Nov-10 23:59N 40°46' W 074°01'0 0.0
2017-Nov-10 23:30N 40°46' W 074°01'0 0.0
2017-Nov-10 23:00N 40°46' W 074°01'0 0.0
2017-Nov-10 22:30N 40°46' W 074°01'0 0.0
2017-Nov-10 22:00N 40°46' W 074°01'0 0.0
2017-Nov-10 21:30N 40°46' W 074°01'0 0.0
2017-Nov-10 21:00N 40°46' W 074°01'0 0.0
2017-Nov-10 20:30N 40°46' W 074°01'0 0.0
2017-Nov-10 20:00N 40°46' W 074°01'0 0.0
2017-Nov-10 19:30N 40°46' W 074°01'0 0.0
2017-Nov-10 19:00N 40°46' W 074°01'0 0.0
2017-Nov-10 18:30N 40°46' W 074°01'0 0.0
2017-Nov-10 18:00N 40°46' W 074°01'0 0.0
2017-Nov-10 17:30N 40°46' W 074°01'0 0.0
2017-Nov-10 17:00N 40°46' W 074°01'0 0.0
2017-Nov-10 16:30N 40°46' W 074°01'0 0.0
2017-Nov-10 16:00N 40°46' W 074°01'0 0.0
2017-Nov-10 15:30N 40°46' W 074°01'1 1.6
2017-Nov-10 15:00N 40°45' W 074°01'0 0.4
2017-Nov-10 14:30N 40°46' W 074°00'0 0.6
2017-Nov-10 14:01N 40°45' W 074°01'0 0.3
2017-Nov-10 13:30N 40°45' W 074°01'0 0.1
2017-Nov-10 13:00N 40°45' W 074°01'0 0.3
2017-Nov-10 12:31N 40°45' W 074°01'0 0.7
2017-Nov-10 12:00N 40°46' W 074°00'1 0.0
2017-Nov-09 15:05N 40°46' W 074°01'0 0.0
2017-Nov-09 15:00N 40°46' W 074°01'4 8.2
2017-Nov-09 14:30N 40°42' W 074°00'2 4.2
2017-Nov-09 14:00N 40°44' W 074°02'2 3.6
2017-Nov-09 13:30N 40°46' W 074°00'4 8.7
2017-Nov-09 13:00N 40°50' W 073°58'4 7.8
2017-Nov-09 12:30N 40°46' W 074°01'0 0.0
2017-Nov-09 01:07N 40°46' W 074°01'0 0.0
2017-Nov-09 01:00N 40°46' W 074°01'1 2.4
2017-Nov-09 00:30N 40°45' W 074°01'1 1.9
2017-Nov-09 00:00N 40°46' W 074°00'1 1.9
2017-Nov-08 23:30N 40°45' W 074°01'1 1.8
2017-Nov-08 22:59N 40°46' W 074°00'1 1.8
2017-Nov-08 22:30N 40°45' W 074°01'1 1.7
2017-Nov-08 22:00N 40°46' W 074°00'1 1.9
2017-Nov-08 21:30N 40°45' W 074°01'1 1.9
2017-Nov-08 21:00N 40°46' W 074°00'0 0.1
2017-Nov-08 20:30N 40°46' W 074°00'1 1.6
2017-Nov-08 20:00N 40°45' W 074°01'1 1.5
2017-Nov-08 19:30N 40°46' W 074°00'1 1.4
2017-Nov-08 19:00N 40°46' W 074°01'0 0.0
2017-Nov-08 18:30N 40°46' W 074°01'0 0.0
2017-Nov-08 18:00N 40°46' W 074°01'0 0.0
2017-Nov-08 17:30N 40°46' W 074°01'0 0.0
2017-Nov-08 17:00N 40°46' W 074°01'0 0.0
2017-Nov-08 16:30N 40°46' W 074°01'0 0.0
2017-Nov-08 15:59N 40°46' W 074°01'0 0.0
2017-Nov-08 15:30N 40°46' W 074°01'0 0.9
2017-Nov-08 15:00N 40°46' W 074°01'4 7.7
2017-Nov-08 14:30N 40°42' W 074°00'2 4.3
2017-Nov-08 14:00N 40°44' W 074°01'1 2.4
2017-Nov-08 13:31N 40°45' W 074°01'5 9.8
2017-Nov-08 13:00N 40°50' W 073°58'4 7.7
2017-Nov-08 12:30N 40°46' W 074°01'0 0.0
2017-Nov-07 15:40N 40°46' W 074°01'0 0.7
2017-Nov-07 15:30N 40°46' W 074°01'2 4.9
2017-Nov-07 15:00N 40°44' W 074°02'0 0.0
2017-Nov-07 14:30N 40°44' W 074°02'  
Track history (hours):
 
Tides and Currents Weather Stations Pressure Air Temp Water Temp Dewpoint Dewpoint Depression Visibility Wind Speed Wind Dir Waves Ship Positions

Yogi Berra

Owner: PORT IMPERIAL FERRY, WEEHAWKEN, NJ. More information available from US FCC via Universal Licensing System and Coast Guard Vessel Documentation Center.

Last reported at 2017-Nov-17 14:08 UTC. Time now 2017-Nov-18 15:23 UTC.
Position N 40°46' W 074°01'.

Length 25 m.

Type: Passenger vessel. MMSI: 367434220.

Date/timePositionNaut miles runAvg speedWind from/ knotsBaromVisibWave heightAir tempDewpointWater temp
2017-Nov-17 14:08N 40°46' W 074°01'0 1.7
2017-Nov-17 14:00N 40°46' W 074°01'1 1.1
2017-Nov-17 13:30N 40°46' W 074°00'4 8.8
2017-Nov-17 13:00N 40°50' W 073°58'  
2017-Nov-14 00:59N 40°46' W 074°01'2 4.6
2017-Nov-14 00:30N 40°44' W 074°02'0 0.0
2017-Nov-14 00:00N 40°44' W 074°02'2 3.3
2017-Nov-13 23:30N 40°42' W 074°01'1 1.8
2017-Nov-13 23:00N 40°42' W 074°00'2 4.5
2017-Nov-13 22:30N 40°44' W 074°02'1 2.9
2017-Nov-13 22:01N 40°43' W 074°02'4 0.2
2017-Nov-13 02:00N 40°46' W 074°01'0 0.0
2017-Nov-13 01:30N 40°46' W 074°01'0 0.0
2017-Nov-13 01:00N 40°46' W 074°01'0 0.0
2017-Nov-13 00:31N 40°46' W 074°01'0 0.0
2017-Nov-13 00:00N 40°46' W 074°01'0 0.0
2017-Nov-12 23:31N 40°46' W 074°01'0 0.0
2017-Nov-12 23:00N 40°46' W 074°01'0 0.0
2017-Nov-12 22:30N 40°46' W 074°01'0 0.0
2017-Nov-12 22:00N 40°46' W 074°01'0 0.0
2017-Nov-12 21:30N 40°46' W 074°01'0 0.0
2017-Nov-12 21:00N 40°46' W 074°01'0 0.0
2017-Nov-12 20:30N 40°46' W 074°01'0 0.0
2017-Nov-12 20:00N 40°46' W 074°01'0 0.0
2017-Nov-12 19:30N 40°46' W 074°01'0 0.0
2017-Nov-12 19:00N 40°46' W 074°01'0 0.0
2017-Nov-12 18:30N 40°46' W 074°01'0 0.0
2017-Nov-12 18:00N 40°46' W 074°01'0 0.0
2017-Nov-12 17:30N 40°46' W 074°01'0 0.0
2017-Nov-12 17:00N 40°46' W 074°01'0 0.0
2017-Nov-12 16:30N 40°46' W 074°01'0 0.0
2017-Nov-12 16:00N 40°46' W 074°01'0 0.0
2017-Nov-12 15:30N 40°46' W 074°01'0 0.0
2017-Nov-12 15:00N 40°46' W 074°01'0 0.0
2017-Nov-12 14:30N 40°46' W 074°01'0 0.0
2017-Nov-12 14:00N 40°46' W 074°01'0 0.0
2017-Nov-12 13:30N 40°46' W 074°01'0 0.0
2017-Nov-12 13:00N 40°46' W 074°01'0 0.0
2017-Nov-12 12:30N 40°46' W 074°01'0 0.0
2017-Nov-12 12:01N 40°46' W 074°01'0 0.0
2017-Nov-12 11:30N 40°46' W 074°01'0 0.0
2017-Nov-12 11:00N 40°46' W 074°01'0 0.0
2017-Nov-12 10:30N 40°46' W 074°01'0 0.0
2017-Nov-12 10:00N 40°46' W 074°01'0 0.0
2017-Nov-12 09:30N 40°46' W 074°01'0 0.0
2017-Nov-12 09:00N 40°46' W 074°01'0 0.0
2017-Nov-12 08:30N 40°46' W 074°01'0 0.0
2017-Nov-12 08:01N 40°46' W 074°01'0 0.0
2017-Nov-12 07:30N 40°46' W 074°01'0 0.0
2017-Nov-12 07:00N 40°46' W 074°01'0 0.0
2017-Nov-12 06:31N 40°46' W 074°01'0 0.0
2017-Nov-12 06:00N 40°46' W 074°01'0 0.0
2017-Nov-12 05:30N 40°46' W 074°01'0 0.0
2017-Nov-12 05:00N 40°46' W 074°01'0 0.0
2017-Nov-12 04:30N 40°46' W 074°01'0 0.0
2017-Nov-12 04:00N 40°46' W 074°01'0 0.0
2017-Nov-12 03:30N 40°46' W 074°01'0 0.0
2017-Nov-12 03:00N 40°46' W 074°01'0 0.0
2017-Nov-12 02:29N 40°46' W 074°01'0 0.0
2017-Nov-12 02:00N 40°46' W 074°01'0 0.0
2017-Nov-12 01:30N 40°46' W 074°01'0 0.0
2017-Nov-12 01:00N 40°46' W 074°01'0 0.0
2017-Nov-12 00:30N 40°46' W 074°01'0 0.0
2017-Nov-12 00:00N 40°46' W 074°01'0 0.0
2017-Nov-11 23:30N 40°46' W 074°01'0 0.0
2017-Nov-11 23:00N 40°46' W 074°01'0 0.0
2017-Nov-11 22:30N 40°46' W 074°01'0 0.0
2017-Nov-11 22:00N 40°46' W 074°01'0 0.0
2017-Nov-11 21:30N 40°46' W 074°01'0 0.0
2017-Nov-11 21:00N 40°46' W 074°01'0 0.0
2017-Nov-11 20:30N 40°46' W 074°01'0 0.0
2017-Nov-11 20:00N 40°46' W 074°01'0 0.0
2017-Nov-11 19:30N 40°46' W 074°01'0 0.0
2017-Nov-11 19:00N 40°46' W 074°01'0 0.0
2017-Nov-11 18:01N 40°46' W 074°01'0 0.0
2017-Nov-11 17:30N 40°46' W 074°01'0 0.0
2017-Nov-11 17:00N 40°46' W 074°01'0 0.0
2017-Nov-11 16:30N 40°46' W 074°01'0 0.0
2017-Nov-11 16:00N 40°46' W 074°01'0 0.0
2017-Nov-11 15:30N 40°46' W 074°01'0 0.0
2017-Nov-11 15:00N 40°46' W 074°01'0 0.0
2017-Nov-11 14:30N 40°46' W 074°01'0 0.0
2017-Nov-11 14:00N 40°46' W 074°01'0 0.0
2017-Nov-11 13:30N 40°46' W 074°01'0 0.0
2017-Nov-11 13:00N 40°46' W 074°01'0 0.0
2017-Nov-11 12:30N 40°46' W 074°01'0 0.0
2017-Nov-11 12:00N 40°46' W 074°01'0 0.0
2017-Nov-11 11:30N 40°46' W 074°01'0 0.0
2017-Nov-11 11:00N 40°46' W 074°01'0 0.0
2017-Nov-11 10:30N 40°46' W 074°01'0 0.0
2017-Nov-11 10:00N 40°46' W 074°01'0 0.0
2017-Nov-11 09:30N 40°46' W 074°01'0 0.0
2017-Nov-11 09:00N 40°46' W 074°01'0 0.0
2017-Nov-11 08:31N 40°46' W 074°01'0 0.0
2017-Nov-11 08:00N 40°46' W 074°01'0 0.0
2017-Nov-11 07:30N 40°46' W 074°01'0 0.0
2017-Nov-11 07:00N 40°46' W 074°01'0 0.0
2017-Nov-11 06:30N 40°46' W 074°01'0 0.0
2017-Nov-11 06:00N 40°46' W 074°01'0 0.0
2017-Nov-11 05:30N 40°46' W 074°01'0 0.0
2017-Nov-11 05:00N 40°46' W 074°01'0 0.0
2017-Nov-11 04:30N 40°46' W 074°01'0 0.0
2017-Nov-11 04:00N 40°46' W 074°01'0 0.0
2017-Nov-11 03:30N 40°46' W 074°01'0 0.0
2017-Nov-11 03:00N 40°46' W 074°01'0 0.0
2017-Nov-11 02:30N 40°46' W 074°01'0 0.0
2017-Nov-11 02:00N 40°46' W 074°01'0 0.0
2017-Nov-11 01:30N 40°46' W 074°01'0 0.0
2017-Nov-11 01:00N 40°46' W 074°01'0 0.0
2017-Nov-11 00:30N 40°46' W 074°01'0 0.0
2017-Nov-10 23:59N 40°46' W 074°01'0 0.0
2017-Nov-10 23:30N 40°46' W 074°01'0 0.0
2017-Nov-10 23:00N 40°46' W 074°01'0 0.0
2017-Nov-10 22:30N 40°46' W 074°01'0 0.0
2017-Nov-10 22:00N 40°46' W 074°01'0 0.0
2017-Nov-10 21:30N 40°46' W 074°01'0 0.0
2017-Nov-10 21:00N 40°46' W 074°01'0 0.0
2017-Nov-10 20:30N 40°46' W 074°01'0 0.0
2017-Nov-10 20:00N 40°46' W 074°01'0 0.0
2017-Nov-10 19:30N 40°46' W 074°01'0 0.0
2017-Nov-10 19:00N 40°46' W 074°01'0 0.0
2017-Nov-10 18:30N 40°46' W 074°01'0 0.0
2017-Nov-10 18:00N 40°46' W 074°01'0 0.0
2017-Nov-10 17:30N 40°46' W 074°01'0 0.0
2017-Nov-10 17:00N 40°46' W 074°01'0 0.0
2017-Nov-10 16:30N 40°46' W 074°01'0 0.0
2017-Nov-10 16:00N 40°46' W 074°01'0 0.0
2017-Nov-10 15:30N 40°46' W 074°01'1 1.6
2017-Nov-10 15:00N 40°45' W 074°01'0 0.4
2017-Nov-10 14:30N 40°46' W 074°00'0 0.6
2017-Nov-10 14:01N 40°45' W 074°01'0 0.3
2017-Nov-10 13:30N 40°45' W 074°01'0 0.1
2017-Nov-10 13:00N 40°45' W 074°01'0 0.3
2017-Nov-10 12:31N 40°45' W 074°01'0 0.7
2017-Nov-10 12:00N 40°46' W 074°00'1 0.0
2017-Nov-09 15:05N 40°46' W 074°01'0 0.0
2017-Nov-09 15:00N 40°46' W 074°01'4 8.2
2017-Nov-09 14:30N 40°42' W 074°00'2 4.2
2017-Nov-09 14:00N 40°44' W 074°02'2 3.6
2017-Nov-09 13:30N 40°46' W 074°00'4 8.7
2017-Nov-09 13:00N 40°50' W 073°58'4 7.8
2017-Nov-09 12:30N 40°46' W 074°01'0 0.0
2017-Nov-09 01:07N 40°46' W 074°01'0 0.0
2017-Nov-09 01:00N 40°46' W 074°01'1 2.4
2017-Nov-09 00:30N 40°45' W 074°01'1 1.9
2017-Nov-09 00:00N 40°46' W 074°00'1 1.9
2017-Nov-08 23:30N 40°45' W 074°01'1 1.8
2017-Nov-08 22:59N 40°46' W 074°00'1 1.8
2017-Nov-08 22:30N 40°45' W 074°01'1 1.7
2017-Nov-08 22:00N 40°46' W 074°00'1 1.9
2017-Nov-08 21:30N 40°45' W 074°01'1 1.9
2017-Nov-08 21:00N 40°46' W 074°00'0 0.1
2017-Nov-08 20:30N 40°46' W 074°00'1 1.6
2017-Nov-08 20:00N 40°45' W 074°01'1 1.5
2017-Nov-08 19:30N 40°46' W 074°00'1 1.4
2017-Nov-08 19:00N 40°46' W 074°01'0 0.0
2017-Nov-08 18:30N 40°46' W 074°01'0 0.0
2017-Nov-08 18:00N 40°46' W 074°01'0 0.0
2017-Nov-08 17:30N 40°46' W 074°01'0 0.0
2017-Nov-08 17:00N 40°46' W 074°01'0 0.0
2017-Nov-08 16:30N 40°46' W 074°01'0 0.0
2017-Nov-08 15:59N 40°46' W 074°01'0 0.0
2017-Nov-08 15:30N 40°46' W 074°01'0 0.9
2017-Nov-08 15:00N 40°46' W 074°01'4 7.7
2017-Nov-08 14:30N 40°42' W 074°00'2 4.3
2017-Nov-08 14:00N 40°44' W 074°01'1 2.4
2017-Nov-08 13:31N 40°45' W 074°01'5 9.8
2017-Nov-08 13:00N 40°50' W 073°58'4 7.7
2017-Nov-08 12:30N 40°46' W 074°01'0 0.0
2017-Nov-07 15:40N 40°46' W 074°01'0 0.7
2017-Nov-07 15:30N 40°46' W 074°01'2 4.9
2017-Nov-07 15:00N 40°44' W 074°02'0 0.0
2017-Nov-07 14:30N 40°44' W 074°02'  

Dump ship's entire track history